Time,TemperatureF,DewpointF,PressureIn,WindDirection,WindDirectionDegrees,WindSpeedMPH,WindSpeedGustMPH,Humidity,HourlyPrecipIn,Conditions,Clouds,dailyrainin,SoftwareType,DateUTC
2013-03-01 00:00:00,37.3,26.2,29.17,NNW,335,4.6,4.6,64,0.00,CLR,,0.00,WeatherDisplay:10.37,2013-03-01 05:00:00,
2013-03-01 00:05:00,37.0,25.9,29.17,NW,318,1.1,1.1,64,0.00,CLR,,0.00,WeatherDisplay:10.37,2013-03-01 05:05:00,
2013-03-01 00:06:00,37.0,25.9,29.17,NW,315,2.3,2.3,64,0.00,CLR,,0.00,WeatherDisplay:10.37,2013-03-01 05:06:00,
2013-03-01 00:11:00,36.9,26.2,29.17,West,264,2.3,2.3,65,0.00,CLR,,0.00,WeatherDisplay:10.37,2013-03-01 05:11:00,
2013-03-01 00:16:00,36.8,26.1,29.17,NW,309,1.1,0.0,65,0.00,CLR,,0.00,WeatherDisplay:10.37,2013-03-01 05:16:00,
2013-03-01 00:21:00,36.6,25.9,29.17,NW,304,0.0,0.0,65,0.00,CLR,,0.00,WeatherDisplay:10.37,2013-03-01 05:21:00,
2013-03-01 00:26:00,36.5,26.2,29.17,NW,304,0.0,0.6,66,0.00,CLR,,0.00,WeatherDisplay:10.37,2013-03-01 05:26:00,
2013-03-01 00:31:00,36.3,26.0,29.17,West,277,3.5,3.5,66,0.00,CLR,,0.00,WeatherDisplay:10.37,2013-03-01 05:31:00,
2013-03-01 00:36:00,36.2,25.9,29.17,NW,308,0.0,0.0,66,0.00,CLR,,0.00,WeatherDisplay:10.37,2013-03-01 05:36:00,
2013-03-01 00:41:00,36.0,26.1,29.17,NW,311,2.3,0.0,67,0.00,CLR,,0.00,WeatherDisplay:10.37,2013-03-01 05:41:00,
2013-03-01 00:46:00,36.0,26.1,29.17,NW,323,2.3,0.0,67,0.00,CLR,,0.00,WeatherDisplay:10.37,2013-03-01 05:46:00,
2013-03-01 00:51:00,35.9,26.0,29.17,NW,306,2.3,2.3,67,0.00,CLR,,0.00,WeatherDisplay:10.37,2013-03-01 05:51:00,
2013-03-01 00:56:00,35.8,26.3,29.17,West,265,3.5,3.5,68,0.00,CLR,,0.00,WeatherDisplay:10.37,2013-03-01 05:56:00,
2013-03-01 01:01:00,35.8,26.3,29.17,WNW,298,4.6,4.6,68,0.00,CLR,,0.00,WeatherDisplay:10.37,2013-03-01 06:01:00,
2013-03-01 01:06:00,35.8,26.3,29.17,NW,319,0.0,0.0,68,0.00,CLR,,0.00,WeatherDisplay:10.37,2013-03-01 06:06:00,
2013-03-01 01:11:00,35.6,26.1,29.18,WSW,256,4.6,4.6,68,0.00,CLR,,0.00,WeatherDisplay:10.37,2013-03-01 06:11:00,
2013-03-01 01:16:00,35.5,26.0,29.18,WSW,258,0.0,0.0,68,0.00,CLR,,0.00,WeatherDisplay:10.37,2013-03-01 06:16:00,
2013-03-01 01:21:00,35.5,26.3,29.18,NNW,332,2.3,0.0,69,0.00,CLR,,0.00,WeatherDisplay:10.37,2013-03-01 06:21:00,
2013-03-01 01:26:00,35.5,26.3,29.18,WSW,250,2.3,2.3,69,0.00,CLR,,0.00,WeatherDisplay:10.37,2013-03-01 06:26:00,
2013-03-01 01:31:00,35.3,26.1,29.18,NW,313,0.0,0.1,69,0.00,CLR,,0.00,WeatherDisplay:10.37,2013-03-01 06:31:00,
2013-03-01 01:36:00,35.2,26.4,29.18,North,359,4.6,0.0,70,0.00,CLR,,0.00,WeatherDisplay:10.37,2013-03-01 06:36:00,
2013-03-01 01:41:00,35.0,26.2,29.18,West,278,2.3,2.3,70,0.00,CLR,,0.00,WeatherDisplay:10.37,2013-03-01 06:41:00,
2013-03-01 01:46:00,34.9,26.1,29.18,WNW,296,0.0,0.0,70,0.00,CLR,,0.00,WeatherDisplay:10.37,2013-03-01 06:46:00,
2013-03-01 01:51:00,34.9,26.4,29.18,WNW,299,2.3,2.3,71,0.00,CLR,,0.00,WeatherDisplay:10.37,2013-03-01 06:51:00,
2013-03-01 01:56:00,34.7,25.9,29.18,WSW,256,2.3,2.3,70,0.00,CLR,,0.00,WeatherDisplay:10.37,2013-03-01 06:56:00,
2013-03-01 02:01:00,34.7,25.9,29.18,NW,325,3.5,3.5,70,0.00,CLR,,0.00,WeatherDisplay:10.37,2013-03-01 07:01:00,
2013-03-01 02:06:00,34.7,26.3,29.18,West,268,0.0,0.0,71,0.00,CLR,,0.00,WeatherDisplay:10.37,2013-03-01 07:06:00,
2013-03-01 02:11:00,34.6,26.2,29.18,West,268,0.0,0.0,71,0.00,CLR,,0.00,WeatherDisplay:10.37,2013-03-01 07:11:00,
2013-03-01 02:16:00,34.6,26.5,29.18,West,274,0.0,0.0,72,0.00,CLR,,0.00,WeatherDisplay:10.37,2013-03-01 07:16:00,
2013-03-01 02:21:00,34.3,26.2,29.18,West,274,0.0,0.0,72,0.00,CLR,,0.00,WeatherDisplay:10.37,2013-03-01 07:21:00,
2013-03-01 02:26:00,34.3,26.2,29.18,West,280,0.0,0.2,72,0.00,CLR,,0.00,WeatherDisplay:10.37,2013-03-01 07:26:00,
2013-03-01 02:31:00,34.3,26.2,29.18,West,280,1.1,1.1,72,0.00,CLR,,0.00,WeatherDisplay:10.37,2013-03-01 07:31:00,
2013-03-01 02:36:00,34.1,26.0,29.18,West,280,0.0,0.0,72,0.00,CLR,,0.00,WeatherDisplay:10.37,2013-03-01 07:36:00,
2013-03-01 02:41:00,34.1,26.0,29.17,West,280,0.0,0.0,72,0.00,CLR,,0.00,WeatherDisplay:10.37,2013-03-01 07:41:00,
2013-03-01 02:46:00,34.0,25.9,29.17,West,280,0.0,0.0,72,0.00,CLR,,0.00,WeatherDisplay:10.37,2013-03-01 07:46:00,
2013-03-01 02:51:00,34.0,25.9,29.17,West,280,0.0,0.0,72,0.00,CLR,,0.00,WeatherDisplay:10.37,2013-03-01 07:51:00,
2013-03-01 02:56:00,33.8,26.1,29.17,West,280,1.1,0.0,73,0.00,CLR,,0.00,WeatherDisplay:10.37,2013-03-01 07:56:00,
2013-03-01 03:01:00,33.7,26.0,29.17,West,280,0.0,0.0,73,0.00,CLR,,0.00,WeatherDisplay:10.37,2013-03-01 08:01:00,
2013-03-01 03:07:00,33.5,26.1,29.17,West,280,0.0,0.0,74,0.00,CLR,,0.00,WeatherDisplay:10.37,2013-03-01 08:07:00,
2013-03-01 03:12:00,33.5,25.8,29.16,West,280,0.0,0.0,73,0.00,CLR,,0.00,WeatherDisplay:10.37,2013-03-01 08:12:00,
2013-03-01 03:17:00,33.5,25.8,29.16,West,278,1.1,1.1,73,0.00,CLR,,0.00,WeatherDisplay:10.37,2013-03-01 08:17:00,
2013-03-01 03:22:00,33.4,25.7,29.16,West,278,1.1,0.0,73,0.00,CLR,,0.00,WeatherDisplay:10.37,2013-03-01 08:22:00,
2013-03-01 03:27:00,33.4,26.3,29.17,West,278,1.1,1.1,75,0.00,CLR,,0.00,WeatherDisplay:10.37,2013-03-01 08:27:00,
2013-03-01 03:32:00,33.2,25.8,29.17,West,278,0.0,0.0,74,0.00,CLR,,0.00,WeatherDisplay:10.37,2013-03-01 08:32:00,
2013-03-01 03:37:00,33.4,26.0,29.17,West,278,0.0,0.0,74,0.00,CLR,,0.00,WeatherDisplay:10.37,2013-03-01 08:37:00,
2013-03-01 03:42:00,33.4,26.0,29.17,West,275,1.1,0.0,74,0.00,CLR,,0.00,WeatherDisplay:10.37,2013-03-01 08:42:00,
2013-03-01 03:47:00,33.4,25.7,29.17,West,268,0.0,0.4,73,0.00,CLR,,0.00,WeatherDisplay:10.37,2013-03-01 08:47:00,
2013-03-01 03:52:00,33.5,25.8,29.17,West,268,0.0,0.0,73,0.00,CLR,,0.00,WeatherDisplay:10.37,2013-03-01 08:52:00,
2013-03-01 03:57:00,33.4,26.0,29.17,West,268,0.0,0.0,74,0.00,CLR,,0.00,WeatherDisplay:10.37,2013-03-01 08:57:00,
2013-03-01 04:02:00,33.4,26.0,29.17,West,268,1.1,1.1,74,0.00,CLR,,0.00,WeatherDisplay:10.37,2013-03-01 09:02:00,
2013-03-01 04:07:00,33.5,25.8,29.17,West,268,1.1,1.1,73,0.00,CLR,,0.00,WeatherDisplay:10.37,2013-03-01 09:07:00,
2013-03-01 04:12:00,33.7,26.0,29.17,West,268,2.3,2.3,73,0.00,CLR,,0.00,WeatherDisplay:10.37,2013-03-01 09:12:00,
2013-03-01 04:17:00,33.7,26.0,29.17,West,268,2.3,2.3,73,0.00,CLR,,0.00,WeatherDisplay:10.37,2013-03-01 09:17:00,
2013-03-01 04:22:00,33.7,26.0,29.17,West,268,4.0,4.0,73,0.00,CLR,,0.00,WeatherDisplay:10.37,2013-03-01 09:22:00,
2013-03-01 04:27:00,33.7,26.0,29.17,West,268,2.3,2.3,73,0.00,CLR,,0.00,WeatherDisplay:10.37,2013-03-01 09:27:00,
2013-03-01 04:32:00,33.4,25.7,29.17,West,268,5.8,5.8,73,0.00,CLR,,0.00,WeatherDisplay:10.37,2013-03-01 09:32:00,
2013-03-01 04:37:00,33.2,25.8,29.17,West,268,3.5,3.5,74,0.00,CLR,,0.00,WeatherDisplay:10.37,2013-03-01 09:37:00,
2013-03-01 04:42:00,33.2,25.8,29.18,West,268,3.5,3.5,74,0.00,CLR,,0.00,WeatherDisplay:10.37,2013-03-01 09:42:00,
2013-03-01 04:47:00,33.1,26.0,29.18,West,263,5.8,5.8,75,0.00,CLR,,0.00,WeatherDisplay:10.37,2013-03-01 09:47:00,
2013-03-01 04:52:00,33.1,26.0,29.18,West,263,5.8,5.8,75,0.00,CLR,,0.00,WeatherDisplay:10.37,2013-03-01 09:52:00,
2013-03-01 04:57:00,33.1,26.4,29.18,West,263,3.5,3.5,76,0.00,CLR,,0.00,WeatherDisplay:10.37,2013-03-01 09:57:00,
2013-03-01 05:02:00,33.1,26.4,29.18,WSW,256,4.0,4.0,76,0.00,CLR,,0.00,WeatherDisplay:10.37,2013-03-01 10:02:00,
2013-03-01 05:07:00,33.1,26.4,29.18,WSW,239,4.6,4.6,76,0.00,CLR,,0.00,WeatherDisplay:10.37,2013-03-01 10:07:00,
2013-03-01 05:12:00,33.1,26.4,29.18,WSW,251,5.8,5.8,76,0.00,CLR,,0.00,WeatherDisplay:10.37,2013-03-01 10:12:00,
2013-03-01 05:17:00,32.9,26.2,29.18,WSW,253,3.5,3.5,76,0.00,CLR,,0.00,WeatherDisplay:10.37,2013-03-01 10:17:00,
2013-03-01 05:22:00,32.9,26.5,29.18,WSW,254,3.5,3.5,77,0.00,CLR,,0.00,WeatherDisplay:10.37,2013-03-01 10:22:00,
2013-03-01 05:27:00,32.8,26.4,29.18,WSW,246,3.5,3.5,77,0.00,CLR,,0.00,WeatherDisplay:10.37,2013-03-01 10:27:00,
2013-03-01 05:32:00,32.7,26.6,29.18,WSW,257,4.6,4.6,78,0.00,CLR,,0.00,WeatherDisplay:10.37,2013-03-01 10:32:00,
2013-03-01 05:37:00,32.7,26.6,29.18,WSW,251,5.8,5.8,78,0.00,CLR,,0.00,WeatherDisplay:10.37,2013-03-01 10:37:00,
2013-03-01 05:42:00,32.5,26.4,29.18,West,265,3.5,3.5,78,0.00,CLR,,0.00,WeatherDisplay:10.37,2013-03-01 10:42:00,
2013-03-01 05:47:00,32.5,26.7,29.18,West,261,5.8,5.8,79,0.00,CLR,,0.00,WeatherDisplay:10.37,2013-03-01 10:47:00,
2013-03-01 05:52:00,32.5,26.7,29.18,West,260,4.0,4.0,79,0.00,CLR,,0.00,WeatherDisplay:10.37,2013-03-01 10:52:00,
2013-03-01 05:57:00,32.5,26.7,29.19,West,268,3.5,3.5,79,0.00,CLR,,0.00,WeatherDisplay:10.37,2013-03-01 10:57:00,
2013-03-01 06:02:00,32.4,26.6,29.19,West,264,3.5,3.5,79,0.00,CLR,,0.00,WeatherDisplay:10.37,2013-03-01 11:02:00,
2013-03-01 06:07:00,32.2,26.4,29.19,West,263,2.3,2.3,79,0.00,CLR,,0.00,WeatherDisplay:10.37,2013-03-01 11:07:00,
2013-03-01 06:12:00,32.2,26.7,29.19,West,263,4.6,4.6,80,0.00,CLR,,0.00,WeatherDisplay:10.37,2013-03-01 11:12:00,
2013-03-01 06:17:00,32.1,26.6,29.19,West,263,2.0,2.0,80,0.00,CLR,,0.00,WeatherDisplay:10.37,2013-03-01 11:17:00,
2013-03-01 06:22:00,32.1,26.6,29.19,West,263,1.1,1.1,80,0.00,CLR,,0.00,WeatherDisplay:10.37,2013-03-01 11:22:00,
2013-03-01 06:27:00,31.9,26.4,29.19,West,263,2.0,2.0,80,0.00,CLR,,0.00,WeatherDisplay:10.37,2013-03-01 11:27:00,
2013-03-01 06:32:00,32.1,26.6,29.19,WSW,241,4.6,4.6,80,0.00,CLR,,0.00,WeatherDisplay:10.37,2013-03-01 11:32:00,
2013-03-01 06:37:00,32.1,26.6,29.19,WSW,246,0.0,0.6,80,0.00,CLR,,0.00,WeatherDisplay:10.37,2013-03-01 11:37:00,
2013-03-01 06:42:00,32.1,26.6,29.19,WSW,246,0.0,0.0,80,0.00,CLR,,0.00,WeatherDisplay:10.37,2013-03-01 11:42:00,
2013-03-01 06:47:00,31.9,26.4,29.19,WSW,253,4.6,4.6,80,0.00,CLR,,0.00,WeatherDisplay:10.37,2013-03-01 11:47:00,
2013-03-01 06:52:00,31.9,26.4,29.19,WSW,251,3.5,3.5,80,0.00,CLR,,0.00,WeatherDisplay:10.37,2013-03-01 11:52:00,
2013-03-01 06:57:00,31.9,26.4,29.20,WSW,251,2.3,2.3,80,0.00,CLR,,0.00,WeatherDisplay:10.37,2013-03-01 11:57:00,
2013-03-01 07:02:00,31.9,26.4,29.20,West,274,3.5,3.5,80,0.00,CLR,,0.00,WeatherDisplay:10.37,2013-03-01 12:02:00,
2013-03-01 07:07:00,31.9,26.4,29.20,West,275,1.1,1.1,80,0.00,CLR,,0.00,WeatherDisplay:10.37,2013-03-01 12:07:00,
2013-03-01 07:12:00,31.9,26.7,29.20,West,274,3.5,3.5,81,0.00,CLR,,0.00,WeatherDisplay:10.37,2013-03-01 12:12:00,
2013-03-01 07:17:00,32.1,26.6,29.20,West,274,3.0,3.0,80,0.00,CLR,,0.00,WeatherDisplay:10.37,2013-03-01 12:17:00,
2013-03-01 07:22:00,32.2,26.7,29.20,West,274,0.0,1.6,80,0.00,CLR,,0.00,WeatherDisplay:10.37,2013-03-01 12:22:00,
2013-03-01 07:27:00,32.5,27.0,29.20,West,271,3.5,3.5,80,0.00,CLR,,0.00,WeatherDisplay:10.37,2013-03-01 12:27:00,
2013-03-01 07:32:00,32.7,26.9,29.20,West,271,3.5,3.5,79,0.00,CLR,,0.00,WeatherDisplay:10.37,2013-03-01 12:32:00,
2013-03-01 07:37:00,32.9,27.1,29.20,West,271,3.5,3.5,79,0.00,CLR,,0.00,WeatherDisplay:10.37,2013-03-01 12:37:00,
2013-03-01 07:42:00,33.2,27.1,29.21,West,271,3.5,3.5,78,0.00,CLR,,0.00,WeatherDisplay:10.37,2013-03-01 12:42:00,
2013-03-01 07:47:00,33.5,27.1,29.21,NW,309,3.5,3.5,77,0.00,CLR,,0.00,WeatherDisplay:10.37,2013-03-01 12:47:00,
2013-03-01 07:52:00,33.8,27.0,29.21,West,271,3.5,3.5,76,0.00,CLR,,0.00,WeatherDisplay:10.37,2013-03-01 12:52:00,
2013-03-01 07:57:00,34.1,27.3,29.20,West,265,6.0,6.0,76,0.00,CLR,,0.00,WeatherDisplay:10.37,2013-03-01 12:57:00,
2013-03-01 08:02:00,34.6,27.5,29.20,WSW,254,5.8,5.8,75,0.00,CLR,,0.00,WeatherDisplay:10.37,2013-03-01 13:02:00,
2013-03-01 08:07:00,34.9,27.1,29.20,WSW,251,3.5,3.5,73,0.00,CLR,,0.00,WeatherDisplay:10.37,2013-03-01 13:07:00,
2013-03-01 08:12:00,35.5,27.7,29.21,WSW,253,0.0,0.0,73,0.00,CLR,,0.00,WeatherDisplay:10.37,2013-03-01 13:12:00,
2013-03-01 08:17:00,35.9,27.7,29.21,West,280,3.5,3.5,72,0.00,CLR,,0.00,WeatherDisplay:10.37,2013-03-01 13:17:00,
2013-03-01 08:22:00,36.3,28.1,29.21,NNW,328,0.0,0.0,72,0.00,CLR,,0.00,WeatherDisplay:10.37,2013-03-01 13:22:00,
2013-03-01 08:27:00,36.6,27.7,29.21,West,268,1.1,1.1,70,0.00,CLR,,0.00,WeatherDisplay:10.37,2013-03-01 13:27:00,
2013-03-01 08:32:00,36.9,27.7,29.21,North,0,2.3,2.3,69,0.00,CLR,,0.00,WeatherDisplay:10.37,2013-03-01 13:32:00,
2013-03-01 08:37:00,37.3,27.3,29.21,WNW,299,5.8,5.8,67,0.00,CLR,,0.00,WeatherDisplay:10.37,2013-03-01 13:37:00,
2013-03-01 08:42:00,37.8,27.8,29.21,WNW,288,3.5,0.0,67,0.00,CLR,,0.00,WeatherDisplay:10.37,2013-03-01 13:42:00,
2013-03-01 08:47:00,38.2,27.8,29.21,NNW,329,1.1,0.0,66,0.00,CLR,,0.00,WeatherDisplay:10.37,2013-03-01 13:47:00,
2013-03-01 08:52:00,38.5,28.1,29.21,West,263,3.5,3.5,66,0.00,CLR,,0.00,WeatherDisplay:10.37,2013-03-01 13:52:00,
2013-03-01 08:57:00,38.9,28.1,29.21,WSW,254,0.0,0.0,65,0.00,CLR,,0.00,WeatherDisplay:10.37,2013-03-01 13:57:00,
2013-03-01 09:02:00,39.5,28.3,29.21,NNE,14,2.3,2.3,64,0.00,CLR,,0.00,WeatherDisplay:10.37,2013-03-01 14:02:00,
2013-03-01 09:07:00,39.9,28.7,29.21,WNW,299,6.0,6.0,64,0.00,CLR,,0.00,WeatherDisplay:10.37,2013-03-01 14:07:00,
2013-03-01 09:12:00,40.3,28.3,29.20,NNW,344,0.0,1.3,62,0.00,CLR,,0.00,WeatherDisplay:10.37,2013-03-01 14:12:00,
2013-03-01 09:17:00,40.5,28.9,29.20,West,274,4.6,4.6,63,0.00,CLR,,0.00,WeatherDisplay:10.37,2013-03-01 14:17:00,
2013-03-01 09:22:00,41.3,28.4,29.20,WNW,284,0.0,0.8,60,0.00,CLR,,0.00,WeatherDisplay:10.37,2013-03-01 14:22:00,
2013-03-01 09:27:00,41.9,28.6,29.20,North,354,3.5,3.5,59,0.00,CLR,,0.00,WeatherDisplay:10.37,2013-03-01 14:27:00,
2013-03-01 09:32:00,42.3,28.6,29.20,North,3,5.8,5.8,58,0.00,CLR,,0.00,WeatherDisplay:10.37,2013-03-01 14:32:00,
2013-03-01 09:37:00,42.9,28.3,29.20,North,8,3.5,3.5,56,0.00,CLR,,0.00,WeatherDisplay:10.37,2013-03-01 14:37:00,
2013-03-01 09:42:00,43.3,28.6,29.20,North,0,3.5,3.5,56,0.00,CLR,,0.00,WeatherDisplay:10.37,2013-03-01 14:42:00,
2013-03-01 09:47:00,43.8,29.1,29.20,NW,309,1.1,0.0,56,0.00,CLR,,0.00,WeatherDisplay:10.37,2013-03-01 14:47:00,
2013-03-01 09:52:00,44.2,27.7,29.20,WNW,292,2.3,2.3,52,0.00,CLR,,0.00,WeatherDisplay:10.37,2013-03-01 14:52:00,
2013-03-01 09:57:00,44.5,28.0,29.20,NNW,337,10.4,10.4,52,0.00,CLR,,0.00,WeatherDisplay:10.37,2013-03-01 14:57:00,
2013-03-01 10:02:00,45.5,26.9,29.20,NNW,332,12.7,12.7,48,0.00,CLR,,0.00,WeatherDisplay:10.37,2013-03-01 15:02:00,
2013-03-01 10:07:00,45.4,25.3,29.20,North,0,11.5,11.5,45,0.00,CLR,,0.00,WeatherDisplay:10.37,2013-03-01 15:07:00,
2013-03-01 10:12:00,44.9,25.3,29.20,North,1,6.9,6.9,46,0.00,CLR,,0.00,WeatherDisplay:10.37,2013-03-01 15:12:00,
2013-03-01 10:17:00,44.9,24.8,29.20,North,359,8.1,8.1,45,0.00,CLR,,0.00,WeatherDisplay:10.37,2013-03-01 15:17:00,
2013-03-01 10:22:00,45.1,25.5,29.20,North,359,3.5,3.5,46,0.00,CLR,,0.00,WeatherDisplay:10.37,2013-03-01 15:22:00,
2013-03-01 10:27:00,45.8,25.6,29.20,NNW,347,5.0,5.6,45,0.00,CLR,,0.00,WeatherDisplay:10.37,2013-03-01 15:27:00,
2013-03-01 10:32:00,46.1,24.3,29.20,North,4,12.7,12.7,42,0.00,CLR,,0.00,WeatherDisplay:10.37,2013-03-01 15:32:00,
2013-03-01 10:37:00,45.8,23.4,29.20,North,11,4.6,4.6,41,0.00,CLR,,0.00,WeatherDisplay:10.37,2013-03-01 15:37:00,
2013-03-01 10:42:00,45.7,25.0,29.20,WSW,253,4.6,4.6,44,0.00,CLR,,0.00,WeatherDisplay:10.37,2013-03-01 15:42:00,
2013-03-01 10:47:00,46.2,24.9,29.20,North,359,4.6,4.6,43,0.00,CLR,,0.00,WeatherDisplay:10.37,2013-03-01 15:47:00,
2013-03-01 10:52:00,46.5,23.4,29.20,NNE,24,5.8,5.8,40,0.00,CLR,,0.00,WeatherDisplay:10.37,2013-03-01 15:52:00,
2013-03-01 10:57:00,46.5,24.6,29.20,NNE,17,4.6,4.6,42,0.00,CLR,,0.00,WeatherDisplay:10.37,2013-03-01 15:57:00,
2013-03-01 11:02:00,46.7,24.8,29.20,North,0,11.5,11.5,42,0.00,CLR,,0.00,WeatherDisplay:10.37,2013-03-01 16:02:00,
2013-03-01 11:07:00,46.4,23.9,29.20,West,270,2.3,2.3,41,0.00,CLR,,0.00,WeatherDisplay:10.37,2013-03-01 16:07:00,
2013-03-01 11:12:00,46.2,24.3,29.20,NNW,344,3.5,3.5,42,0.00,CLR,,0.00,WeatherDisplay:10.37,2013-03-01 16:12:00,
2013-03-01 11:17:00,46.1,24.8,29.20,North,11,6.9,6.9,43,0.00,CLR,,0.00,WeatherDisplay:10.37,2013-03-01 16:17:00,
2013-03-01 11:22:00,46.1,24.8,29.20,NNW,342,7.0,7.0,43,0.00,CLR,,0.00,WeatherDisplay:10.37,2013-03-01 16:22:00,
2013-03-01 11:27:00,45.8,24.5,29.20,NNW,346,11.5,11.5,43,0.00,CLR,,0.00,WeatherDisplay:10.37,2013-03-01 16:27:00,
2013-03-01 11:32:00,46.0,24.7,29.20,North,0,6.9,6.9,43,0.00,CLR,,0.00,WeatherDisplay:10.37,2013-03-01 16:32:00,
2013-03-01 11:37:00,46.1,24.8,29.20,NNW,340,3.5,3.5,43,0.00,CLR,,0.00,WeatherDisplay:10.37,2013-03-01 16:37:00,
2013-03-01 11:42:00,46.2,27.1,29.20,WSW,248,3.5,3.5,47,0.00,CLR,,0.00,WeatherDisplay:10.37,2013-03-01 16:42:00,
2013-03-01 11:47:00,46.1,25.4,29.20,North,349,5.8,5.8,44,0.00,CLR,,0.00,WeatherDisplay:10.37,2013-03-01 16:47:00,
2013-03-01 11:52:00,45.8,25.1,29.20,North,0,6.9,6.9,44,0.00,CLR,,0.00,WeatherDisplay:10.37,2013-03-01 16:52:00,
2013-03-01 11:57:00,45.7,25.5,29.20,North,356,4.6,4.6,45,0.00,CLR,,0.00,WeatherDisplay:10.37,2013-03-01 16:57:00,
2013-03-01 12:02:00,45.7,25.0,29.20,NNE,23,11.5,11.5,44,0.00,CLR,,0.00,WeatherDisplay:10.37,2013-03-01 17:02:00,
2013-03-01 12:07:00,45.7,25.0,29.20,WNW,285,5.8,5.9,44,0.00,CLR,,0.00,WeatherDisplay:10.37,2013-03-01 17:07:00,
2013-03-01 12:13:00,45.7,25.0,29.20,NE,34,8.1,8.1,44,0.00,CLR,,0.00,WeatherDisplay:10.37,2013-03-01 17:13:00,
2013-03-01 12:18:00,45.7,25.5,29.20,North,0,6.9,6.9,45,0.00,CLR,,0.00,WeatherDisplay:10.37,2013-03-01 17:18:00,
2013-03-01 12:23:00,45.7,25.5,29.20,North,0,8.1,8.1,45,0.00,CLR,,0.00,WeatherDisplay:10.37,2013-03-01 17:23:00,
2013-03-01 12:28:00,45.7,26.1,29.19,North,3,5.8,5.8,46,0.00,CLR,,0.00,WeatherDisplay:10.37,2013-03-01 17:28:00,
2013-03-01 12:33:00,45.8,25.1,29.19,NNW,328,8.1,8.1,44,0.00,CLR,,0.00,WeatherDisplay:10.37,2013-03-01 17:33:00,
2013-03-01 12:38:00,45.8,25.6,29.19,WSW,241,4.6,4.6,45,0.00,CLR,,0.00,WeatherDisplay:10.37,2013-03-01 17:38:00,
2013-03-01 12:43:00,45.7,25.5,29.19,NW,313,5.8,5.8,45,0.00,CLR,,0.00,WeatherDisplay:10.37,2013-03-01 17:43:00,
2013-03-01 12:48:00,45.8,25.6,29.19,North,0,6.9,6.9,45,0.00,CLR,,0.00,WeatherDisplay:10.37,2013-03-01 17:48:00,
2013-03-01 12:53:00,45.7,26.6,29.19,North,0,2.3,2.3,47,0.00,CLR,,0.00,WeatherDisplay:10.37,2013-03-01 17:53:00,
2013-03-01 12:58:00,45.7,26.1,29.18,North,11,6.0,6.0,46,0.00,CLR,,0.00,WeatherDisplay:10.37,2013-03-01 17:58:00,
2013-03-01 13:03:00,45.7,26.1,29.18,West,264,6.9,6.9,46,0.00,CLR,,0.00,WeatherDisplay:10.37,2013-03-01 18:03:00,
2013-03-01 13:08:00,45.7,26.1,29.18,NNW,346,6.9,6.9,46,0.00,CLR,,0.00,WeatherDisplay:10.37,2013-03-01 18:08:00,
2013-03-01 13:13:00,45.7,25.5,29.18,West,268,6.9,6.9,45,0.00,CLR,,0.00,WeatherDisplay:10.37,2013-03-01 18:13:00,
2013-03-01 13:18:00,45.7,25.5,29.18,NNW,335,3.5,3.5,45,0.00,CLR,,0.00,WeatherDisplay:10.37,2013-03-01 18:18:00,
2013-03-01 13:23:00,45.8,25.6,29.18,North,350,11.5,11.5,45,0.00,CLR,,0.00,WeatherDisplay:10.37,2013-03-01 18:23:00,
2013-03-01 13:28:00,45.7,25.5,29.17,NNE,13,8.1,8.1,45,0.00,CLR,,0.00,WeatherDisplay:10.37,2013-03-01 18:28:00,
2013-03-01 13:33:00,45.7,25.5,29.17,North,359,11.5,11.5,45,0.00,CLR,,0.00,WeatherDisplay:10.37,2013-03-01 18:33:00,
2013-03-01 13:38:00,45.7,26.1,29.17,WNW,302,5.8,5.8,46,0.00,CLR,,0.00,WeatherDisplay:10.37,2013-03-01 18:38:00,
2013-03-01 13:43:00,45.8,25.6,29.17,North,1,6.9,6.9,45,0.00,CLR,,0.00,WeatherDisplay:10.37,2013-03-01 18:43:00,
2013-03-01 13:48:00,46.0,26.4,29.17,WNW,291,8.1,8.1,46,0.00,CLR,,0.00,WeatherDisplay:10.37,2013-03-01 18:48:00,
2013-03-01 13:53:00,45.8,26.7,29.17,West,280,11.5,11.5,47,0.00,CLR,,0.00,WeatherDisplay:10.37,2013-03-01 18:53:00,
2013-03-01 13:58:00,45.8,26.2,29.17,NNW,332,8.1,8.1,46,0.00,CLR,,0.00,WeatherDisplay:10.37,2013-03-01 18:58:00,
2013-03-01 14:03:00,46.0,26.4,29.17,NW,305,10.4,10.4,46,0.00,CLR,,0.00,WeatherDisplay:10.37,2013-03-01 19:03:00,
2013-03-01 14:08:00,45.8,26.2,29.17,WSW,241,8.1,8.1,46,0.00,CLR,,0.00,WeatherDisplay:10.37,2013-03-01 19:08:00,
2013-03-01 14:13:00,45.7,26.6,29.17,NNE,17,5.8,5.8,47,0.00,CLR,,0.00,WeatherDisplay:10.37,2013-03-01 19:13:00,
2013-03-01 14:18:00,45.5,26.9,29.17,North,359,6.9,6.9,48,0.00,CLR,,0.00,WeatherDisplay:10.37,2013-03-01 19:18:00,
2013-03-01 14:23:00,45.2,26.7,29.17,North,357,9.0,9.0,48,0.00,CLR,,0.00,WeatherDisplay:10.37,2013-03-01 19:23:00,
2013-03-01 14:28:00,45.1,26.6,29.17,North,3,5.8,5.8,48,0.00,CLR,,0.00,WeatherDisplay:10.37,2013-03-01 19:28:00,
2013-03-01 14:33:00,44.9,26.4,29.17,North,356,11.5,11.5,48,0.00,CLR,,0.00,WeatherDisplay:10.37,2013-03-01 19:33:00,
2013-03-01 14:38:00,44.8,26.3,29.17,WNW,284,11.5,11.5,48,0.00,CLR,,0.00,WeatherDisplay:10.37,2013-03-01 19:38:00,
2013-03-01 14:43:00,44.6,26.1,29.17,North,357,12.7,12.7,48,0.00,CLR,,0.00,WeatherDisplay:10.37,2013-03-01 19:43:00,
2013-03-01 14:48:00,44.6,26.6,29.17,NNE,14,11.5,11.5,49,0.00,CLR,,0.00,WeatherDisplay:10.37,2013-03-01 19:48:00,
2013-03-01 14:53:00,44.6,27.1,29.17,North,7,3.5,3.5,50,0.00,CLR,,0.00,WeatherDisplay:10.37,2013-03-01 19:53:00,
2013-03-01 14:58:00,44.8,26.8,29.17,North,349,6.9,6.9,49,0.00,CLR,,0.00,WeatherDisplay:10.37,2013-03-01 19:58:00,
2013-03-01 15:03:00,44.8,26.8,29.17,North,0,7.0,7.0,49,0.00,CLR,,0.00,WeatherDisplay:10.37,2013-03-01 20:03:00,
2013-03-01 15:08:00,44.8,26.8,29.17,WNW,302,2.3,2.3,49,0.00,CLR,,0.00,WeatherDisplay:10.37,2013-03-01 20:08:00,
2013-03-01 15:13:00,44.6,26.1,29.17,SW,232,6.9,6.9,48,0.00,CLR,,0.00,WeatherDisplay:10.37,2013-03-01 20:13:00,
2013-03-01 15:18:00,44.5,26.5,29.17,SW,229,3.5,3.5,49,0.00,CLR,,0.00,WeatherDisplay:10.37,2013-03-01 20:18:00,
2013-03-01 15:23:00,44.3,26.3,29.17,WSW,256,6.0,6.0,49,0.00,CLR,,0.00,WeatherDisplay:10.37,2013-03-01 20:23:00,
2013-03-01 15:28:00,44.2,26.2,29.17,ENE,58,11.5,11.5,49,0.00,CLR,,0.00,WeatherDisplay:10.37,2013-03-01 20:28:00,
2013-03-01 15:33:00,44.2,26.2,29.17,North,359,11.5,11.5,49,0.00,CLR,,0.00,WeatherDisplay:10.37,2013-03-01 20:33:00,
2013-03-01 15:38:00,44.2,26.7,29.17,NNW,343,3.5,3.5,50,0.00,CLR,,0.00,WeatherDisplay:10.37,2013-03-01 20:38:00,
2013-03-01 15:43:00,44.2,26.7,29.17,NNE,32,3.5,3.5,50,0.00,CLR,,0.00,WeatherDisplay:10.37,2013-03-01 20:43:00,
2013-03-01 15:48:00,44.2,26.7,29.17,North,359,3.5,3.5,50,0.00,CLR,,0.00,WeatherDisplay:10.37,2013-03-01 20:48:00,
2013-03-01 15:53:00,44.2,26.7,29.17,NW,326,1.1,0.0,50,0.00,CLR,,0.00,WeatherDisplay:10.37,2013-03-01 20:53:00,
2013-03-01 15:58:00,44.1,26.6,29.17,WSW,253,3.0,3.0,50,0.00,CLR,,0.00,WeatherDisplay:10.37,2013-03-01 20:58:00,
2013-03-01 16:03:00,43.9,26.9,29.17,North,349,5.8,5.8,51,0.00,CLR,,0.00,WeatherDisplay:10.37,2013-03-01 21:03:00,
2013-03-01 16:08:00,43.9,26.9,29.17,North,6,1.1,2.4,51,0.00,CLR,,0.00,WeatherDisplay:10.37,2013-03-01 21:08:00,
2013-03-01 16:13:00,43.9,26.9,29.18,North,1,6.9,6.9,51,0.00,CLR,,0.00,WeatherDisplay:10.37,2013-03-01 21:13:00,
2013-03-01 16:18:00,43.8,26.8,29.18,North,6,8.1,8.1,51,0.00,CLR,,0.00,WeatherDisplay:10.37,2013-03-01 21:18:00,
2013-03-01 16:23:00,43.6,26.6,29.18,NNE,27,4.6,4.6,51,0.00,CLR,,0.00,WeatherDisplay:10.37,2013-03-01 21:23:00,
2013-03-01 16:28:00,43.6,27.1,29.18,SSW,196,4.6,4.6,52,0.00,CLR,,0.00,WeatherDisplay:10.37,2013-03-01 21:28:00,
2013-03-01 16:33:00,43.6,26.6,29.18,North,349,5.8,5.8,51,0.00,CLR,,0.00,WeatherDisplay:10.37,2013-03-01 21:33:00,
2013-03-01 16:38:00,43.5,26.6,29.18,North,8,5.8,5.8,51,0.00,CLR,,0.00,WeatherDisplay:10.37,2013-03-01 21:38:00,
2013-03-01 16:43:00,43.5,27.0,29.18,North,0,0.0,1.0,52,0.00,CLR,,0.00,WeatherDisplay:10.37,2013-03-01 21:43:00,
2013-03-01 16:48:00,43.5,27.0,29.18,North,0,8.1,8.1,52,0.00,CLR,,0.00,WeatherDisplay:10.37,2013-03-01 21:48:00,
2013-03-01 16:53:00,43.3,27.3,29.18,North,359,3.5,3.5,53,0.00,CLR,,0.00,WeatherDisplay:10.37,2013-03-01 21:53:00,
2013-03-01 16:58:00,43.3,27.3,29.18,NNE,25,1.1,0.0,53,0.00,CLR,,0.00,WeatherDisplay:10.37,2013-03-01 21:58:00,
2013-03-01 17:03:00,43.3,27.3,29.18,North,0,3.5,0.0,53,0.00,CLR,,0.00,WeatherDisplay:10.37,2013-03-01 22:03:00,
2013-03-01 17:08:00,43.2,27.7,29.18,North,359,0.0,0.0,54,0.00,CLR,,0.00,WeatherDisplay:10.37,2013-03-01 22:08:00,
2013-03-01 17:13:00,43.2,27.2,29.19,NNE,23,4.6,0.0,53,0.00,CLR,,0.00,WeatherDisplay:10.37,2013-03-01 22:13:00,
2013-03-01 17:18:00,43.1,27.1,29.19,North,7,4.6,4.6,53,0.00,CLR,,0.00,WeatherDisplay:10.37,2013-03-01 22:18:00,
2013-03-01 17:23:00,43.1,27.6,29.19,North,0,0.0,1.5,54,0.00,CLR,,0.00,WeatherDisplay:10.37,2013-03-01 22:23:00,
2013-03-01 17:28:00,42.9,27.4,29.19,North,0,0.0,0.0,54,0.00,CLR,,0.00,WeatherDisplay:10.37,2013-03-01 22:28:00,
2013-03-01 17:33:00,42.9,27.4,29.19,WNW,301,2.3,2.3,54,0.00,CLR,,0.00,WeatherDisplay:10.37,2013-03-01 22:33:00,
2013-03-01 17:38:00,42.8,27.3,29.19,NNW,344,2.3,2.3,54,0.00,CLR,,0.00,WeatherDisplay:10.37,2013-03-01 22:38:00,
2013-03-01 17:43:00,42.6,27.1,29.20,North,0,0.0,0.0,54,0.00,CLR,,0.00,WeatherDisplay:10.37,2013-03-01 22:43:00,
2013-03-01 17:48:00,42.6,27.5,29.20,North,0,0.0,0.0,55,0.00,CLR,,0.00,WeatherDisplay:10.37,2013-03-01 22:48:00,
2013-03-01 17:53:00,42.5,27.5,29.20,North,349,2.3,0.0,55,0.00,CLR,,0.00,WeatherDisplay:10.37,2013-03-01 22:53:00,
2013-03-01 17:58:00,42.5,27.5,29.20,North,349,0.0,0.0,55,0.00,CLR,,0.00,WeatherDisplay:10.37,2013-03-01 22:58:00,
2013-03-01 18:03:00,42.5,27.5,29.20,North,349,0.0,0.0,55,0.00,CLR,,0.00,WeatherDisplay:10.37,2013-03-01 23:03:00,
2013-03-01 18:08:00,42.3,27.7,29.20,North,349,1.0,1.0,56,0.00,CLR,,0.00,WeatherDisplay:10.37,2013-03-01 23:08:00,
2013-03-01 18:13:00,42.2,27.6,29.20,North,349,0.0,0.0,56,0.00,CLR,,0.00,WeatherDisplay:10.37,2013-03-01 23:13:00,
2013-03-01 18:18:00,42.2,28.0,29.20,North,349,0.0,0.0,57,0.00,CLR,,0.00,WeatherDisplay:10.37,2013-03-01 23:18:00,
2013-03-01 18:23:00,42.1,27.9,29.20,North,349,0.0,0.0,57,0.00,CLR,,0.00,WeatherDisplay:10.37,2013-03-01 23:23:00,
2013-03-01 18:28:00,41.9,27.8,29.21,North,349,0.0,0.0,57,0.00,CLR,,0.00,WeatherDisplay:10.37,2013-03-01 23:28:00,
2013-03-01 18:33:00,41.9,28.2,29.21,North,349,0.0,0.0,58,0.00,CLR,,0.00,WeatherDisplay:10.37,2013-03-01 23:33:00,
2013-03-01 18:38:00,41.8,28.1,29.21,North,349,0.0,0.0,58,0.00,CLR,,0.00,WeatherDisplay:10.37,2013-03-01 23:38:00,
2013-03-01 18:43:00,41.6,28.3,29.21,North,349,0.0,0.0,59,0.00,CLR,,0.00,WeatherDisplay:10.37,2013-03-01 23:43:00,
2013-03-01 18:48:00,41.6,28.3,29.21,North,349,0.0,0.0,59,0.00,CLR,,0.00,WeatherDisplay:10.37,2013-03-01 23:48:00,
2013-03-01 18:53:00,41.5,28.6,29.21,North,349,0.0,0.0,60,0.00,CLR,,0.00,WeatherDisplay:10.37,2013-03-01 23:53:00,
2013-03-01 18:58:00,41.3,28.9,29.22,North,349,0.0,0.0,61,0.00,CLR,,0.00,WeatherDisplay:10.37,2013-03-01 23:58:00,
2013-03-01 19:03:00,41.2,28.8,29.22,North,349,0.0,0.0,61,0.00,CLR,,0.00,WeatherDisplay:10.37,2013-03-02 00:03:00,
2013-03-01 19:08:00,41.1,28.7,29.22,North,349,0.0,0.0,61,0.00,CLR,,0.00,WeatherDisplay:10.37,2013-03-02 00:08:00,
2013-03-01 19:13:00,41.1,29.1,29.22,North,349,0.0,0.0,62,0.00,CLR,,0.00,WeatherDisplay:10.37,2013-03-02 00:13:00,
2013-03-01 19:18:00,40.9,28.9,29.22,North,349,0.0,0.0,62,0.00,CLR,,0.00,WeatherDisplay:10.37,2013-03-02 00:18:00,
2013-03-01 19:23:00,40.9,29.7,29.22,North,349,0.0,0.0,64,0.00,CLR,,0.00,WeatherDisplay:10.37,2013-03-02 00:23:00,
2013-03-01 19:28:00,40.8,29.6,29.23,North,349,0.0,0.0,64,0.00,CLR,,0.00,WeatherDisplay:10.37,2013-03-02 00:28:00,
2013-03-01 19:34:00,40.8,29.6,29.23,North,349,0.0,0.0,64,0.00,CLR,,0.00,WeatherDisplay:10.37,2013-03-02 00:34:00,
2013-03-01 19:39:00,40.6,29.7,29.23,North,349,0.0,0.0,65,0.00,CLR,,0.00,WeatherDisplay:10.37,2013-03-02 00:39:00,
2013-03-01 19:44:00,40.6,29.7,29.23,North,349,0.0,0.0,65,0.00,CLR,,0.00,WeatherDisplay:10.37,2013-03-02 00:44:00,
2013-03-01 19:49:00,40.6,29.4,29.23,North,349,0.0,0.0,64,0.00,CLR,,0.00,WeatherDisplay:10.37,2013-03-02 00:49:00,
2013-03-01 19:54:00,40.5,28.9,29.23,North,349,0.0,0.0,63,0.00,CLR,,0.00,WeatherDisplay:10.37,2013-03-02 00:54:00,
2013-03-01 19:59:00,40.5,29.3,29.23,North,349,0.0,0.0,64,0.00,CLR,,0.00,WeatherDisplay:10.37,2013-03-02 00:59:00,
2013-03-01 20:04:00,40.5,29.3,29.23,North,349,0.0,0.0,64,0.00,CLR,,0.00,WeatherDisplay:10.37,2013-03-02 01:04:00,
2013-03-01 20:09:00,40.5,28.9,29.23,North,349,0.0,0.0,63,0.00,CLR,,0.00,WeatherDisplay:10.37,2013-03-02 01:09:00,
2013-03-01 20:14:00,40.5,28.9,29.23,North,349,0.0,0.0,63,0.00,CLR,,0.00,WeatherDisplay:10.37,2013-03-02 01:14:00,
2013-03-01 20:19:00,40.5,28.9,29.23,North,349,0.0,0.0,63,0.00,CLR,,0.00,WeatherDisplay:10.37,2013-03-02 01:19:00,
2013-03-01 20:24:00,40.5,29.3,29.23,North,349,0.0,0.0,64,0.00,CLR,,0.00,WeatherDisplay:10.37,2013-03-02 01:24:00,
2013-03-01 20:29:00,40.5,28.9,29.23,North,349,0.0,0.0,63,0.00,CLR,,0.00,WeatherDisplay:10.37,2013-03-02 01:29:00,
2013-03-01 20:34:00,40.5,28.9,29.23,North,349,0.0,0.0,63,0.00,CLR,,0.00,WeatherDisplay:10.37,2013-03-02 01:34:00,
2013-03-01 20:39:00,40.5,28.9,29.23,North,349,0.0,0.0,63,0.00,CLR,,0.00,WeatherDisplay:10.37,2013-03-02 01:39:00,
2013-03-01 20:44:00,40.5,28.9,29.23,North,349,0.0,0.0,63,0.00,CLR,,0.00,WeatherDisplay:10.37,2013-03-02 01:44:00,
2013-03-01 20:49:00,40.3,28.3,29.23,North,349,1.1,0.0,62,0.00,CLR,,0.00,WeatherDisplay:10.37,2013-03-02 01:49:00,
2013-03-01 20:54:00,40.5,28.5,29.23,North,349,0.0,0.0,62,0.00,CLR,,0.00,WeatherDisplay:10.37,2013-03-02 01:54:00,
2013-03-01 20:59:00,40.5,28.5,29.23,North,349,0.0,0.0,62,0.00,CLR,,0.00,WeatherDisplay:10.37,2013-03-02 01:59:00,
2013-03-01 21:04:00,40.5,28.5,29.23,North,349,0.0,0.0,62,0.00,CLR,,0.00,WeatherDisplay:10.37,2013-03-02 02:04:00,
2013-03-01 21:09:00,40.3,28.3,29.23,North,349,0.0,0.0,62,0.00,CLR,,0.00,WeatherDisplay:10.37,2013-03-02 02:09:00,
2013-03-01 21:14:00,40.3,28.3,29.23,North,354,2.3,2.3,62,0.00,CLR,,0.00,WeatherDisplay:10.37,2013-03-02 02:14:00,
2013-03-01 21:19:00,40.3,27.9,29.23,North,354,1.1,1.1,61,0.00,CLR,,0.00,WeatherDisplay:10.37,2013-03-02 02:19:00,
2013-03-01 21:24:00,40.3,27.9,29.23,North,359,3.5,3.5,61,0.00,CLR,,0.00,WeatherDisplay:10.37,2013-03-02 02:24:00,
2013-03-01 21:29:00,40.5,28.1,29.24,North,0,1.0,1.0,61,0.00,CLR,,0.00,WeatherDisplay:10.37,2013-03-02 02:29:00,
2013-03-01 21:34:00,40.5,28.1,29.24,North,0,0.0,0.0,61,0.00,CLR,,0.00,WeatherDisplay:10.37,2013-03-02 02:34:00,
2013-03-01 21:39:00,40.5,28.1,29.24,North,0,3.5,3.5,61,0.00,CLR,,0.00,WeatherDisplay:10.37,2013-03-02 02:39:00,
2013-03-01 21:44:00,40.3,27.9,29.24,North,350,6.9,6.9,61,0.00,CLR,,0.00,WeatherDisplay:10.37,2013-03-02 02:44:00,
2013-03-01 21:49:00,40.3,27.9,29.24,North,350,3.5,3.5,61,0.00,CLR,,0.00,WeatherDisplay:10.37,2013-03-02 02:49:00,
2013-03-01 21:54:00,40.2,27.8,29.24,North,357,1.1,1.1,61,0.00,CLR,,0.00,WeatherDisplay:10.37,2013-03-02 02:54:00,
2013-03-01 21:59:00,40.2,27.8,29.25,North,357,1.1,1.1,61,0.00,CLR,,0.00,WeatherDisplay:10.37,2013-03-02 02:59:00,
2013-03-01 22:04:00,40.1,27.7,29.25,North,0,2.3,2.3,61,0.00,CLR,,0.00,WeatherDisplay:10.37,2013-03-02 03:04:00,
2013-03-01 22:09:00,40.1,27.7,29.25,North,0,2.3,2.3,61,0.00,CLR,,0.00,WeatherDisplay:10.37,2013-03-02 03:09:00,
2013-03-01 22:14:00,40.1,27.7,29.25,North,353,4.6,4.6,61,0.00,CLR,,0.00,WeatherDisplay:10.37,2013-03-02 03:14:00,
2013-03-01 22:19:00,39.9,27.5,29.25,North,350,6.0,6.0,61,0.00,CLR,,0.00,WeatherDisplay:10.37,2013-03-02 03:19:00,
2013-03-01 22:24:00,39.9,27.1,29.25,North,353,3.5,3.5,60,0.00,CLR,,0.00,WeatherDisplay:10.37,2013-03-02 03:24:00,
2013-03-01 22:29:00,39.8,27.0,29.24,North,359,6.9,6.9,60,0.00,CLR,,0.00,WeatherDisplay:10.37,2013-03-02 03:29:00,
2013-03-01 22:34:00,39.8,27.0,29.24,North,0,4.6,4.6,60,0.00,CLR,,0.00,WeatherDisplay:10.37,2013-03-02 03:34:00,
2013-03-01 22:39:00,39.8,26.2,29.24,North,356,6.9,6.9,58,0.00,CLR,,0.00,WeatherDisplay:10.37,2013-03-02 03:39:00,
2013-03-01 22:44:00,39.6,25.6,29.24,North,0,8.1,8.1,57,0.00,CLR,,0.00,WeatherDisplay:10.37,2013-03-02 03:44:00,
2013-03-01 22:49:00,39.6,25.2,29.24,North,359,3.5,3.5,56,0.00,CLR,,0.00,WeatherDisplay:10.37,2013-03-02 03:49:00,
2013-03-01 22:54:00,39.6,25.6,29.24,North,352,3.5,0.0,57,0.00,CLR,,0.00,WeatherDisplay:10.37,2013-03-02 03:54:00,
2013-03-01 22:59:00,39.6,25.6,29.24,North,0,2.3,2.3,57,0.00,CLR,,0.00,WeatherDisplay:10.37,2013-03-02 03:59:00,
2013-03-01 23:04:00,39.5,25.5,29.24,North,359,5.8,5.8,57,0.00,CLR,,0.00,WeatherDisplay:10.37,2013-03-02 04:04:00,
2013-03-01 23:09:00,39.5,25.1,29.24,NNW,347,5.8,5.8,56,0.00,CLR,,0.00,WeatherDisplay:10.37,2013-03-02 04:09:00,
2013-03-01 23:14:00,39.5,24.7,29.23,North,0,8.1,8.1,55,0.00,CLR,,0.00,WeatherDisplay:10.37,2013-03-02 04:14:00,
2013-03-01 23:19:00,39.3,24.5,29.23,North,0,0.0,1.5,55,0.00,CLR,,0.00,WeatherDisplay:10.37,2013-03-02 04:19:00,
2013-03-01 23:24:00,39.3,24.9,29.23,North,0,2.3,2.3,56,0.00,CLR,,0.00,WeatherDisplay:10.37,2013-03-02 04:24:00,
2013-03-01 23:29:00,39.2,24.4,29.24,North,356,2.3,2.3,55,0.00,CLR,,0.00,WeatherDisplay:10.37,2013-03-02 04:29:00,
2013-03-01 23:34:00,39.2,23.9,29.24,North,10,6.9,6.9,54,0.00,CLR,,0.00,WeatherDisplay:10.37,2013-03-02 04:34:00,
2013-03-01 23:39:00,39.2,23.9,29.24,North,6,6.9,6.9,54,0.00,CLR,,0.00,WeatherDisplay:10.37,2013-03-02 04:39:00,
2013-03-01 23:44:00,39.2,23.9,29.24,North,10,3.5,3.5,54,0.00,CLR,,0.00,WeatherDisplay:10.37,2013-03-02 04:44:00,
2013-03-01 23:49:00,39.1,23.8,29.24,North,357,3.5,3.5,54,0.00,CLR,,0.00,WeatherDisplay:10.37,2013-03-02 04:49:00,
2013-03-01 23:54:00,39.1,23.4,29.24,North,0,3.5,3.5,53,0.00,CLR,,0.00,WeatherDisplay:10.37,2013-03-02 04:54:00,
2013-03-01 23:59:00,39.1,23.8,29.23,North,356,3.5,3.5,54,0.00,CLR,,0.00,WeatherDisplay:10.37,2013-03-02 04:59:00,